Flight Track Log - Related Links

Times and Time Zones

All times are in EDT time to prevent confusion due to time zone crossing. See the CSN3801 flight status page for this flight to view local times or setup timezone preferences in your user account.

Time Position Orientation Groundspeed Altitude Reporting Facility
EDT Latitude Longitude Course Direction KTS MPH feet Rate Location/Type
Wed 07:26:57 AM 23.4260 113.3240 29° Northeast 168 193 2,300  Level FlightAware ADS-B
Wed 07:27:27 AM 23.4490 113.3390 31° Northeast 211 243 3,200 2,509 Climbing FlightAware ADS-B
Wed 07:27:52 AM 23.4710 113.3520 28° Northeast 220 253 4,600 3,300 Climbing FlightAware ADS-B
Wed 07:28:07 AM 23.4840 113.3600 29° Northeast 222 255 5,400 2,800 Climbing FlightAware ADS-B
Wed 07:28:22 AM 23.4960 113.3730 45° Northeast 237 273 6,000 2,400 Climbing FlightAware ADS-B
Wed 07:28:37 AM 23.5010 113.3890 71° East 248 285 6,600 1,350 Climbing FlightAware ADS-B
Wed 07:29:02 AM 23.5050 113.4240 83° East 280 322 6,900 218 Climbing FlightAware ADS-B
Wed 07:29:32 AM 23.5110 113.4660 81° East 285 328 6,800 -100 Descending FlightAware ADS-B
Wed 07:30:02 AM 23.5180 113.5080 80° East 285 328 6,800  Level FlightAware ADS-B
Wed 07:30:27 AM 23.5240 113.5430 79° East 284 327 6,800  Level FlightAware ADS-B
Wed 07:30:57 AM 23.5310 113.5870 80° East 285 328 6,800  Level FlightAware ADS-B
Wed 07:31:22 AM 23.5370 113.6220 79° East 287 330 6,800  Level FlightAware ADS-B
Wed 07:31:52 AM 23.5440 113.6650 80° East 288 331 6,800  Level FlightAware ADS-B
Wed 07:32:07 AM 23.5470 113.6840 80° East 288 331 6,800 343 Level FlightAware ADS-B
Wed 07:32:27 AM 23.5520 113.7140 80° East 288 331 7,000 1,855 Climbing FlightAware ADS-B
Wed 07:33:02 AM 23.5600 113.7680 81° East 297 342 8,500 2,677 Climbing FlightAware ADS-B
Wed 07:33:32 AM 23.5670 113.8120 80° East 310 357 9,900 2,657 Climbing FlightAware ADS-B
Wed 07:34:12 AM 23.5770 113.8790 81° East 338 389 11,600 2,700 Climbing FlightAware ADS-B
Wed 07:34:52 AM 23.5880 113.9440 80° East 344 396 13,500 2,400 Climbing FlightAware ADS-B
Wed 07:35:32 AM 23.5990 114.0110 80° East 368 423 14,800 988 Climbing FlightAware ADS-B
Wed 07:36:17 AM 23.6130 114.1010 80° East 390 449 14,900 776 Climbing FlightAware ADS-B
Wed 07:36:57 AM 23.6260 114.1820 80° East 411 473 15,900 1,271 Climbing FlightAware ADS-B
Wed 07:37:42 AM 23.6410 114.2760 80° East 421 484 16,700 1,029 Climbing FlightAware ADS-B
Wed 07:38:07 AM 23.6570 114.3230 70° East 418 481 17,100 1,350 Climbing FlightAware ADS-B
Wed 07:38:22 AM 23.6750 114.3480 52° Northeast 420 483 17,600 1,900 Climbing FlightAware ADS-B
Wed 07:39:07 AM 23.7480 114.4090 37° Northeast 434 499 19,000 2,118 Climbing FlightAware ADS-B
Wed 07:39:47 AM 23.8140 114.4620 36° Northeast 441 507 20,600 1,275 Climbing FlightAware ADS-B
Wed 07:40:27 AM 23.8740 114.5110 37° Northeast 444 511 20,700 1,200 Climbing FlightAware ADS-B
Wed 07:41:12 AM 23.9510 114.5740 37° Northeast 443 510 22,300 1,341 Climbing FlightAware ADS-B
Wed 07:41:52 AM 24.0170 114.6290 37° Northeast 451 519 22,600 353 Climbing FlightAware ADS-B
Wed 07:42:37 AM 24.0950 114.6940 37° Northeast 449 517 22,800 1,129 Climbing FlightAware ADS-B
Wed 07:43:17 AM 24.1610 114.7470 36° Northeast 452 520 24,200 1,875 Climbing FlightAware ADS-B
Wed 07:43:57 AM 24.2260 114.8020 38° Northeast 459 528 25,300 776 Climbing FlightAware ADS-B
Wed 07:44:42 AM 24.2950 114.8590 37° Northeast 459 528 25,300  Level FlightAware ADS-B
Wed 07:45:22 AM 24.3530 114.9070 37° Northeast 459 528 25,300  Level FlightAware ADS-B
Wed 07:46:02 AM 24.4110 114.9540 36° Northeast 459 528 25,300  Level FlightAware ADS-B
Wed 07:46:42 AM 24.4680 115.0020 37° Northeast 459 528 25,300  Level FlightAware ADS-B
Wed 07:47:32 AM 24.5410 115.0620 37° Northeast 459 528 25,300  Level FlightAware ADS-B
Wed 07:50:00 AM 24.7573 115.2534 39° Northeast  Level Estimated
Wed 07:51:00 AM 24.8449 115.3312 39° Northeast  Level Estimated
Wed 07:52:00 AM 24.9325 115.4091 39° Northeast  Level Estimated
Wed 07:53:00 AM 25.0200 115.4871 39° Northeast  Level Estimated
Wed 07:54:00 AM 25.1075 115.5652 39° Northeast  Level Estimated
Wed 07:55:00 AM 25.1949 115.6434 39° Northeast  Level Estimated
Wed 07:56:00 AM 25.2824 115.7218 39° Northeast  Level Estimated
Wed 07:57:00 AM 25.3697 115.8002 39° Northeast  Level Estimated
Wed 07:58:00 AM 25.4571 115.8788 39° Northeast  Level Estimated
Wed 07:59:00 AM 25.5443 115.9575 39° Northeast  Level Estimated
Wed 08:00:00 AM 25.6316 116.0363 39° Northeast  Level Estimated
Wed 08:01:00 AM 25.7188 116.1152 39° Northeast  Level Estimated
Wed 08:02:00 AM 25.8059 116.1942 39° Northeast  Level Estimated
Wed 08:03:00 AM 25.8931 116.2733 39° Northeast  Level Estimated
Wed 08:04:00 AM 25.9801 116.3526 39° Northeast  Level Estimated
Wed 08:05:00 AM 26.0672 116.4320 39° Northeast  Level Estimated
Wed 08:06:00 AM 26.1542 116.5115 39° Northeast  Level Estimated
Wed 08:07:00 AM 26.2411 116.5911 39° Northeast  Level Estimated
Wed 08:08:00 AM 26.3280 116.6708 39° Northeast  Level Estimated
Wed 08:09:00 AM 26.4148 116.7507 39° Northeast  Level Estimated
Wed 08:10:00 AM 26.5016 116.8306 39° Northeast  Level Estimated
Wed 08:11:00 AM 26.5884 116.9107 40° Northeast  Level Estimated
Wed 08:12:00 AM 26.6751 116.9909 40° Northeast  Level Estimated
Wed 08:13:00 AM 26.7618 117.0713 40° Northeast  Level Estimated
Wed 08:14:00 AM 26.8484 117.1517 40° Northeast  Level Estimated
Wed 08:15:00 AM 26.9350 117.2323 40° Northeast  Level Estimated
Wed 08:16:00 AM 27.0216 117.3130 40° Northeast  Level Estimated
Wed 08:17:00 AM 27.1081 117.3939 40° Northeast  Level Estimated
Wed 08:18:00 AM 27.1945 117.4748 40° Northeast  Level Estimated
Wed 08:19:00 AM 27.2809 117.5559 40° Northeast  Level Estimated
Wed 08:20:00 AM 27.3673 117.6371 40° Northeast  Level Estimated
Wed 08:21:00 AM 27.4536 117.7184 40° Northeast  Level Estimated
Wed 08:22:00 AM 27.5398 117.7999 40° Northeast  Level Estimated
Wed 08:23:00 AM 27.6260 117.8815 40° Northeast  Level Estimated
Wed 08:24:00 AM 27.7122 117.9632 40° Northeast  Level Estimated
Wed 08:25:00 AM 27.7983 118.0451 40° Northeast  Level Estimated
Wed 08:26:00 AM 27.8844 118.1270 40° Northeast  Level Estimated
Wed 08:27:00 AM 27.9704 118.2092 40° Northeast  Level Estimated
Wed 08:28:00 AM 28.0564 118.2914 40° Northeast  Level Estimated
Wed 08:29:00 AM 28.1423 118.3738 40° Northeast  Level Estimated
Wed 08:30:00 AM 28.2282 118.4563 40° Northeast  Level Estimated
Wed 08:31:00 AM 28.3140 118.5389 40° Northeast  Level Estimated
Wed 08:32:00 AM 28.3998 118.6217 40° Northeast  Level Estimated
Wed 08:33:00 AM 28.4855 118.7046 40° Northeast  Level Estimated
Wed 08:34:00 AM 28.5711 118.7876 40° Northeast  Level Estimated
Wed 08:35:00 AM 28.6568 118.8708 40° Northeast  Level Estimated
Wed 08:36:00 AM 28.7423 118.9541 40° Northeast  Level Estimated
Wed 08:37:00 AM 28.8279 119.0375 41° Northeast  Level Estimated
Wed 08:38:00 AM 28.9133 119.1211 41° Northeast  Level Estimated
Wed 08:39:00 AM 28.9988 119.2048 41° Northeast  Level Estimated
Wed 08:40:00 AM 29.0841 119.2887 41° Northeast  Level Estimated
Wed 08:41:00 AM 29.1694 119.3727 41° Northeast  Level Estimated
Wed 08:42:00 AM 29.2547 119.4568 41° Northeast  Level Estimated
Wed 08:43:00 AM 29.3399 119.5411 41° Northeast  Level Estimated
Wed 08:44:00 AM 29.4250 119.6255 41° Northeast  Level Estimated
Wed 08:45:00 AM 29.5101 119.7101 41° Northeast  Level Estimated
Wed 08:46:00 AM 29.5952 119.7948 41° Northeast  Level Estimated
Wed 08:47:00 AM 29.6802 119.8796 41° Northeast  Level Estimated
Wed 08:48:00 AM 29.7651 119.9646 41° Northeast  Level Estimated
Wed 08:49:00 AM 29.8500 120.0498 41° Northeast  Level Estimated
Wed 08:50:00 AM 29.9348 120.1350 41° Northeast  Level Estimated
Wed 08:51:00 AM 30.0196 120.2205 41° Northeast  Level Estimated
Wed 08:52:00 AM 30.1043 120.3060 41° Northeast  Level Estimated
Wed 08:53:00 AM 30.1890 120.3918 41° Northeast  Level Estimated
Wed 08:54:00 AM 30.2283 120.4317 41° Northeast  Level Estimated
Wed 08:55:00 AM 30.2283 120.4317 319° Northwest  Level Estimated
Wed 08:56:00 AM 30.2283 120.4317 319° Northwest  Level Estimated
Wed 08:57:00 AM 30.2283 120.4317 319° Northwest  Level Estimated
Wed 08:58:00 AM 30.2283 120.4317 319° Northwest  Level Estimated
Wed 08:59:00 AM 30.2283 120.4317 319° Northwest  Level Estimated
Wed 09:00:00 AM 30.2283 120.4317 319° Northwest  Level Estimated
Wed 09:01:00 AM 30.2283 120.4317 319° Northwest  Level Estimated
Wed 09:02:00 AM 30.2283 120.4317 319° Northwest  Level Estimated
Wed 09:03:00 AM 30.2283 120.4317 319° Northwest  Level Estimated
Wed 09:04:00 AM 30.2283 120.4317 319° Northwest  Level Estimated

Login

Don't have an account? Register now (free) for customized features, flight alerts, and more!